sensor_id;sensor_type;location;lat;lon;timestamp;pressure;altitude;pressure_sealevel;temperature;humidity
47670;BME280;33408;52.062;11.722;2023-02-26T00:01:55;100951.44;;;-0.69;100.00
47670;BME280;33408;52.062;11.722;2023-02-26T00:04:25;100958.38;;;-0.65;100.00
47670;BME280;33408;52.062;11.722;2023-02-26T00:06:52;100954.44;;;-0.83;100.00
47670;BME280;33408;52.062;11.722;2023-02-26T00:09:20;100968.47;;;-0.68;100.00
47670;BME280;33408;52.062;11.722;2023-02-26T00:11:48;100965.66;;;-0.76;100.00
47670;BME280;33408;52.062;11.722;2023-02-26T00:14:15;100968.50;;;-0.67;100.00
47670;BME280;33408;52.062;11.722;2023-02-26T00:16:43;100971.69;;;-0.74;100.00
47670;BME280;33408;52.062;11.722;2023-02-26T00:19:12;100964.91;;;-0.74;100.00
47670;BME280;33408;52.062;11.722;2023-02-26T00:21:40;100971.06;;;-0.67;100.00
47670;BME280;33408;52.062;11.722;2023-02-26T00:24:08;100975.16;;;-0.72;100.00
47670;BME280;33408;52.062;11.722;2023-02-26T00:26:35;100976.91;;;-0.69;100.00
47670;BME280;33408;52.062;11.722;2023-02-26T00:29:04;100986.28;;;-0.68;100.00
47670;BME280;33408;52.062;11.722;2023-02-26T00:31:31;100983.63;;;-0.71;100.00
47670;BME280;33408;52.062;11.722;2023-02-26T00:33:58;100988.25;;;-0.60;100.00
47670;BME280;33408;52.062;11.722;2023-02-26T00:36:31;100989.03;;;-0.62;100.00
47670;BME280;33408;52.062;11.722;2023-02-26T00:39:06;100988.72;;;-0.71;100.00
47670;BME280;33408;52.062;11.722;2023-02-26T00:41:35;100994.78;;;-0.68;100.00
47670;BME280;33408;52.062;11.722;2023-02-26T00:44:05;100992.91;;;-0.74;100.00
47670;BME280;33408;52.062;11.722;2023-02-26T00:46:37;101004.88;;;-0.71;100.00
47670;BME280;33408;52.062;11.722;2023-02-26T00:49:16;101011.78;;;-0.67;100.00
47670;BME280;33408;52.062;11.722;2023-02-26T00:51:48;101013.34;;;-0.72;100.00
47670;BME280;33408;52.062;11.722;2023-02-26T00:54:18;101003.00;;;-0.77;100.00
47670;BME280;33408;52.062;11.722;2023-02-26T00:56:46;101004.78;;;-0.74;100.00
47670;BME280;33408;52.062;11.722;2023-02-26T00:59:14;101010.50;;;-0.81;100.00
47670;BME280;33408;52.062;11.722;2023-02-26T01:01:41;101014.72;;;-0.82;100.00
47670;BME280;33408;52.062;11.722;2023-02-26T01:04:09;101016.44;;;-0.81;100.00
47670;BME280;33408;52.062;11.722;2023-02-26T01:06:40;101012.03;;;-0.86;100.00
47670;BME280;33408;52.062;11.722;2023-02-26T01:09:14;101021.38;;;-0.85;100.00
47670;BME280;33408;52.062;11.722;2023-02-26T01:11:43;101014.94;;;-0.76;100.00
47670;BME280;33408;52.062;11.722;2023-02-26T01:14:10;101023.72;;;-0.66;100.00
47670;BME280;33408;52.062;11.722;2023-02-26T01:16:43;101022.91;;;-0.90;100.00
47670;BME280;33408;52.062;11.722;2023-02-26T01:19:19;101027.13;;;-0.91;100.00
47670;BME280;33408;52.062;11.722;2023-02-26T01:21:55;101024.19;;;-1.03;100.00
47670;BME280;33408;52.062;11.722;2023-02-26T01:24:28;101033.03;;;-0.92;100.00
47670;BME280;33408;52.062;11.722;2023-02-26T01:26:56;101034.72;;;-0.93;100.00
47670;BME280;33408;52.062;11.722;2023-02-26T01:29:23;101034.63;;;-0.96;100.00
47670;BME280;33408;52.062;11.722;2023-02-26T01:31:54;101037.09;;;-0.97;100.00
47670;BME280;33408;52.062;11.722;2023-02-26T01:34:25;101032.13;;;-0.94;100.00
47670;BME280;33408;52.062;11.722;2023-02-26T01:36:57;101041.72;;;-0.87;100.00
47670;BME280;33408;52.062;11.722;2023-02-26T01:39:31;101042.31;;;-0.94;100.00
47670;BME280;33408;52.062;11.722;2023-02-26T01:42:05;101050.16;;;-0.88;100.00
47670;BME280;33408;52.062;11.722;2023-02-26T01:44:41;101044.94;;;-0.91;100.00
47670;BME280;33408;52.062;11.722;2023-02-26T01:47:16;101051.00;;;-0.87;100.00
47670;BME280;33408;52.062;11.722;2023-02-26T01:49:46;101043.72;;;-1.02;100.00
47670;BME280;33408;52.062;11.722;2023-02-26T01:55:51;101045.66;;;-0.95;100.00
47670;BME280;33408;52.062;11.722;2023-02-26T01:58:20;101055.25;;;-0.88;100.00
47670;BME280;33408;52.062;11.722;2023-02-26T02:00:47;101061.81;;;-0.95;100.00
47670;BME280;33408;52.062;11.722;2023-02-26T02:03:15;101065.09;;;-0.97;100.00
47670;BME280;33408;52.062;11.722;2023-02-26T02:05:44;101066.78;;;-0.98;100.00
47670;BME280;33408;52.062;11.722;2023-02-26T02:08:13;101073.59;;;-0.97;100.00
47670;BME280;33408;52.062;11.722;2023-02-26T02:10:41;101070.69;;;-1.07;100.00
47670;BME280;33408;52.062;11.722;2023-02-26T02:13:14;101072.22;;;-1.13;100.00
47670;BME280;33408;52.062;11.722;2023-02-26T02:15:50;101073.88;;;-1.13;100.00
47670;BME280;33408;52.062;11.722;2023-02-26T02:18:23;101084.44;;;-1.02;100.00
47670;BME280;33408;52.062;11.722;2023-02-26T02:24:02;101085.63;;;-1.17;100.00
47670;BME280;33408;52.062;11.722;2023-02-26T02:26:43;101092.56;;;-1.13;100.00
47670;BME280;33408;52.062;11.722;2023-02-26T02:32:30;101107.88;;;-1.58;100.00
47670;BME280;33408;52.062;11.722;2023-02-26T02:35:08;101098.94;;;-1.48;100.00
47670;BME280;33408;52.062;11.722;2023-02-26T02:37:39;101105.91;;;-1.42;100.00
47670;BME280;33408;52.062;11.722;2023-02-26T02:40:09;101105.34;;;-1.35;100.00
47670;BME280;33408;52.062;11.722;2023-02-26T02:42:41;101106.16;;;-1.36;100.00
47670;BME280;33408;52.062;11.722;2023-02-26T02:45:14;101112.94;;;-1.13;100.00
47670;BME280;33408;52.062;11.722;2023-02-26T02:47:48;101115.66;;;-1.06;100.00
47670;BME280;33408;52.062;11.722;2023-02-26T02:50:20;101124.59;;;-1.18;100.00
47670;BME280;33408;52.062;11.722;2023-02-26T02:52:51;101118.53;;;-1.21;100.00
47670;BME280;33408;52.062;11.722;2023-02-26T02:55:21;101127.97;;;-1.19;100.00
47670;BME280;33408;52.062;11.722;2023-02-26T02:57:54;101126.22;;;-1.20;100.00
47670;BME280;33408;52.062;11.722;2023-02-26T03:00:26;101127.41;;;-1.10;100.00
47670;BME280;33408;52.062;11.722;2023-02-26T03:03:00;101128.72;;;-1.21;100.00
47670;BME280;33408;52.062;11.722;2023-02-26T03:05:28;101124.19;;;-1.06;100.00
47670;BME280;33408;52.062;11.722;2023-02-26T03:07:58;101129.00;;;-1.14;100.00
47670;BME280;33408;52.062;11.722;2023-02-26T03:10:26;101130.81;;;-1.10;100.00
47670;BME280;33408;52.062;11.722;2023-02-26T03:12:53;101143.50;;;-1.11;100.00
47670;BME280;33408;52.062;11.722;2023-02-26T03:15:32;101143.47;;;-1.13;100.00
47670;BME280;33408;52.062;11.722;2023-02-26T03:18:11;101143.34;;;-1.16;100.00
47670;BME280;33408;52.062;11.722;2023-02-26T03:20:51;101154.94;;;-1.24;100.00
47670;BME280;33408;52.062;11.722;2023-02-26T03:23:23;101162.28;;;-1.07;100.00
47670;BME280;33408;52.062;11.722;2023-02-26T03:26:00;101169.88;;;-1.09;100.00
47670;BME280;33408;52.062;11.722;2023-02-26T03:28:33;101176.13;;;-1.23;100.00
47670;BME280;33408;52.062;11.722;2023-02-26T03:31:05;101176.16;;;-0.99;100.00
47670;BME280;33408;52.062;11.722;2023-02-26T03:33:37;101169.22;;;-1.03;100.00
47670;BME280;33408;52.062;11.722;2023-02-26T03:36:13;101173.66;;;-0.98;100.00
47670;BME280;33408;52.062;11.722;2023-02-26T03:38:48;101173.72;;;-0.96;100.00
47670;BME280;33408;52.062;11.722;2023-02-26T03:41:19;101170.44;;;-1.16;100.00
47670;BME280;33408;52.062;11.722;2023-02-26T03:43:53;101182.09;;;-0.99;100.00
47670;BME280;33408;52.062;11.722;2023-02-26T03:46:22;101183.50;;;-1.07;100.00
47670;BME280;33408;52.062;11.722;2023-02-26T03:48:54;101187.19;;;-0.99;100.00
47670;BME280;33408;52.062;11.722;2023-02-26T03:51:25;101197.53;;;-0.94;100.00
47670;BME280;33408;52.062;11.722;2023-02-26T03:53:57;101199.75;;;-1.03;100.00
47670;BME280;33408;52.062;11.722;2023-02-26T03:56:27;101193.19;;;-0.97;100.00
47670;BME280;33408;52.062;11.722;2023-02-26T03:58:55;101208.47;;;-0.97;100.00
47670;BME280;33408;52.062;11.722;2023-02-26T04:01:28;101217.59;;;-1.02;100.00
47670;BME280;33408;52.062;11.722;2023-02-26T04:04:01;101214.66;;;-0.90;100.00
47670;BME280;33408;52.062;11.722;2023-02-26T04:06:28;101218.69;;;-0.95;100.00
47670;BME280;33408;52.062;11.722;2023-02-26T04:08:56;101227.59;;;-0.84;100.00
47670;BME280;33408;52.062;11.722;2023-02-26T04:11:23;101227.69;;;-0.81;100.00
47670;BME280;33408;52.062;11.722;2023-02-26T04:13:51;101224.97;;;-0.85;100.00
47670;BME280;33408;52.062;11.722;2023-02-26T04:16:17;101227.59;;;-0.84;100.00
47670;BME280;33408;52.062;11.722;2023-02-26T04:18:44;101230.25;;;-0.81;100.00
47670;BME280;33408;52.062;11.722;2023-02-26T04:21:13;101232.63;;;-0.85;100.00
47670;BME280;33408;52.062;11.722;2023-02-26T04:23:41;101235.38;;;-0.79;100.00
47670;BME280;33408;52.062;11.722;2023-02-26T04:26:07;101237.31;;;-0.74;100.00
47670;BME280;33408;52.062;11.722;2023-02-26T04:28:34;101242.81;;;-0.61;100.00
47670;BME280;33408;52.062;11.722;2023-02-26T04:31:02;101244.78;;;-0.78;100.00
47670;BME280;33408;52.062;11.722;2023-02-26T04:33:30;101237.75;;;-0.84;100.00
47670;BME280;33408;52.062;11.722;2023-02-26T04:35:57;101248.06;;;-0.81;100.00
47670;BME280;33408;52.062;11.722;2023-02-26T04:38:26;101247.72;;;-0.67;100.00
47670;BME280;33408;52.062;11.722;2023-02-26T04:40:52;101255.81;;;-0.78;100.00
47670;BME280;33408;52.062;11.722;2023-02-26T04:43:19;101252.69;;;-0.70;100.00
47670;BME280;33408;52.062;11.722;2023-02-26T04:45:46;101259.44;;;-0.71;100.00
47670;BME280;33408;52.062;11.722;2023-02-26T04:48:13;101268.88;;;-0.68;100.00
47670;BME280;33408;52.062;11.722;2023-02-26T04:50:39;101263.72;;;-0.70;100.00
47670;BME280;33408;52.062;11.722;2023-02-26T04:53:06;101269.06;;;-0.64;100.00
47670;BME280;33408;52.062;11.722;2023-02-26T04:55:35;101277.19;;;-0.73;100.00
47670;BME280;33408;52.062;11.722;2023-02-26T04:58:02;101278.03;;;-0.74;100.00
47670;BME280;33408;52.062;11.722;2023-02-26T05:00:29;101287.50;;;-0.69;100.00
47670;BME280;33408;52.062;11.722;2023-02-26T05:02:55;101282.09;;;-0.79;100.00
47670;BME280;33408;52.062;11.722;2023-02-26T05:05:22;101285.91;;;-0.67;100.00
47670;BME280;33408;52.062;11.722;2023-02-26T05:07:49;101292.06;;;-0.61;100.00
47670;BME280;33408;52.062;11.722;2023-02-26T05:10:18;101293.53;;;-0.67;100.00
47670;BME280;33408;52.062;11.722;2023-02-26T05:12:46;101294.56;;;-0.62;100.00
47670;BME280;33408;52.062;11.722;2023-02-26T05:15:12;101301.91;;;-0.70;100.00
47670;BME280;33408;52.062;11.722;2023-02-26T05:17:39;101302.16;;;-0.64;100.00
47670;BME280;33408;52.062;11.722;2023-02-26T05:20:06;101318.28;;;-0.63;100.00
47670;BME280;33408;52.062;11.722;2023-02-26T05:22:34;101304.41;;;-0.71;100.00
47670;BME280;33408;52.062;11.722;2023-02-26T05:25:01;101311.69;;;-0.58;100.00
47670;BME280;33408;52.062;11.722;2023-02-26T05:27:27;101316.25;;;-0.49;100.00
47670;BME280;33408;52.062;11.722;2023-02-26T05:29:55;101312.22;;;-0.67;100.00
47670;BME280;33408;52.062;11.722;2023-02-26T05:32:22;101318.28;;;-0.63;100.00
47670;BME280;33408;52.062;11.722;2023-02-26T05:34:48;101317.44;;;-0.64;100.00
47670;BME280;33408;52.062;11.722;2023-02-26T05:37:15;101321.38;;;-0.72;100.00
47670;BME280;33408;52.062;11.722;2023-02-26T05:39:42;101328.63;;;-0.59;100.00
47670;BME280;33408;52.062;11.722;2023-02-26T05:42:08;101334.66;;;-0.57;100.00
47670;BME280;33408;52.062;11.722;2023-02-26T05:44:35;101333.69;;;-0.60;100.00
47670;BME280;33408;52.062;11.722;2023-02-26T05:47:03;101339.28;;;-0.46;100.00
47670;BME280;33408;52.062;11.722;2023-02-26T05:49:30;101342.16;;;-0.60;100.00
47670;BME280;33408;52.062;11.722;2023-02-26T05:51:56;101341.53;;;-0.54;100.00
47670;BME280;33408;52.062;11.722;2023-02-26T05:54:23;101358.69;;;-0.50;100.00
47670;BME280;33408;52.062;11.722;2023-02-26T05:56:49;101356.22;;;-0.47;100.00
47670;BME280;33408;52.062;11.722;2023-02-26T05:59:16;101362.94;;;-0.49;100.00
47670;BME280;33408;52.062;11.722;2023-02-26T06:01:43;101364.88;;;-0.43;100.00
47670;BME280;33408;52.062;11.722;2023-02-26T06:04:11;101369.38;;;-0.59;100.00
47670;BME280;33408;52.062;11.722;2023-02-26T06:06:37;101372.22;;;-0.51;100.00
47670;BME280;33408;52.062;11.722;2023-02-26T06:09:04;101373.50;;;-0.62;100.00
47670;BME280;33408;52.062;11.722;2023-02-26T06:11:31;101384.97;;;-0.51;100.00
47670;BME280;33408;52.062;11.722;2023-02-26T06:13:57;101382.16;;;-0.57;100.00
47670;BME280;33408;52.062;11.722;2023-02-26T06:16:24;101389.13;;;-0.53;100.00
47670;BME280;33408;52.062;11.722;2023-02-26T06:18:51;101385.47;;;-0.60;100.00
47670;BME280;33408;52.062;11.722;2023-02-26T06:21:19;101396.31;;;-0.65;100.00
47670;BME280;33408;52.062;11.722;2023-02-26T06:23:46;101403.63;;;-0.50;100.00
47670;BME280;33408;52.062;11.722;2023-02-26T06:26:12;101404.72;;;-0.66;100.00
47670;BME280;33408;52.062;11.722;2023-02-26T06:28:39;101409.44;;;-0.54;100.00
47670;BME280;33408;52.062;11.722;2023-02-26T06:31:06;101414.91;;;-0.66;100.00
47670;BME280;33408;52.062;11.722;2023-02-26T06:33:32;101424.78;;;-0.76;100.00
47670;BME280;33408;52.062;11.722;2023-02-26T06:35:59;101434.19;;;-0.50;100.00
47670;BME280;33408;52.062;11.722;2023-02-26T06:38:28;101436.63;;;-0.53;100.00
47670;BME280;33408;52.062;11.722;2023-02-26T06:40:57;101432.56;;;-0.48;100.00
47670;BME280;33408;52.062;11.722;2023-02-26T06:43:23;101439.81;;;-0.37;100.00
47670;BME280;33408;52.062;11.722;2023-02-26T06:45:50;101444.81;;;-0.40;100.00
47670;BME280;33408;52.062;11.722;2023-02-26T06:48:17;101453.84;;;-0.48;100.00
47670;BME280;33408;52.062;11.722;2023-02-26T06:50:43;101456.63;;;-0.42;100.00
47670;BME280;33408;52.062;11.722;2023-02-26T06:53:10;101451.28;;;-0.48;100.00
47670;BME280;33408;52.062;11.722;2023-02-26T06:55:42;101464.88;;;-0.47;100.00
47670;BME280;33408;52.062;11.722;2023-02-26T06:58:09;101459.16;;;-0.64;100.00
47670;BME280;33408;52.062;11.722;2023-02-26T07:00:35;101468.28;;;-0.47;100.00
47670;BME280;33408;52.062;11.722;2023-02-26T07:03:03;101478.69;;;-0.63;100.00
47670;BME280;33408;52.062;11.722;2023-02-26T07:05:30;101486.47;;;-0.60;100.00
47670;BME280;33408;52.062;11.722;2023-02-26T07:07:57;101494.09;;;-0.60;100.00
47670;BME280;33408;52.062;11.722;2023-02-26T07:10:23;101503.25;;;-0.65;100.00
47670;BME280;33408;52.062;11.722;2023-02-26T07:12:51;101504.09;;;-0.86;100.00
47670;BME280;33408;52.062;11.722;2023-02-26T07:15:18;101510.19;;;-0.82;100.00
47670;BME280;33408;52.062;11.722;2023-02-26T07:17:45;101511.06;;;-0.82;100.00
47670;BME280;33408;52.062;11.722;2023-02-26T07:20:11;101522.75;;;-0.87;100.00
47670;BME280;33408;52.062;11.722;2023-02-26T07:22:38;101526.22;;;-0.85;100.00
47670;BME280;33408;52.062;11.722;2023-02-26T07:25:06;101528.50;;;-0.70;100.00
47670;BME280;33408;52.062;11.722;2023-02-26T07:27:33;101533.28;;;-0.57;100.00
47670;BME280;33408;52.062;11.722;2023-02-26T07:30:01;101525.94;;;-0.49;100.00
47670;BME280;33408;52.062;11.722;2023-02-26T07:32:28;101539.97;;;-0.38;100.00
47670;BME280;33408;52.062;11.722;2023-02-26T07:34:55;101538.25;;;-0.39;100.00
47670;BME280;33408;52.062;11.722;2023-02-26T07:37:22;101547.50;;;-0.41;100.00
47670;BME280;33408;52.062;11.722;2023-02-26T07:39:48;101549.88;;;-0.23;100.00
47670;BME280;33408;52.062;11.722;2023-02-26T07:42:15;101551.38;;;-0.28;100.00
47670;BME280;33408;52.062;11.722;2023-02-26T07:44:42;101553.44;;;-0.19;100.00
47670;BME280;33408;52.062;11.722;2023-02-26T07:47:10;101562.50;;;-0.05;100.00
47670;BME280;33408;52.062;11.722;2023-02-26T07:49:37;101557.03;;;-0.14;100.00
47670;BME280;33408;52.062;11.722;2023-02-26T07:52:04;101560.38;;;0.08;100.00
47670;BME280;33408;52.062;11.722;2023-02-26T07:54:32;101566.63;;;-0.07;100.00
47670;BME280;33408;52.062;11.722;2023-02-26T07:56:59;101564.91;;;-0.08;100.00
47670;BME280;33408;52.062;11.722;2023-02-26T07:59:26;101570.53;;;0.06;100.00
47670;BME280;33408;52.062;11.722;2023-02-26T08:01:52;101571.91;;;0.21;100.00
47670;BME280;33408;52.062;11.722;2023-02-26T08:04:21;101576.03;;;0.17;100.00
47670;BME280;33408;52.062;11.722;2023-02-26T08:06:48;101585.84;;;0.53;100.00
47670;BME280;33408;52.062;11.722;2023-02-26T08:09:14;101577.88;;;0.44;100.00
47670;BME280;33408;52.062;11.722;2023-02-26T08:11:41;101586.63;;;0.50;100.00
47670;BME280;33408;52.062;11.722;2023-02-26T08:14:09;101582.94;;;0.66;100.00
47670;BME280;33408;52.062;11.722;2023-02-26T08:16:36;101592.91;;;0.36;100.00
47670;BME280;33408;52.062;11.722;2023-02-26T08:19:02;101589.19;;;0.28;100.00
47670;BME280;33408;52.062;11.722;2023-02-26T08:21:30;101591.63;;;0.71;100.00
47670;BME280;33408;52.062;11.722;2023-02-26T08:23:57;101589.44;;;0.34;100.00
47670;BME280;33408;52.062;11.722;2023-02-26T08:26:23;101598.47;;;0.48;100.00
47670;BME280;33408;52.062;11.722;2023-02-26T08:28:50;101598.91;;;0.38;100.00
47670;BME280;33408;52.062;11.722;2023-02-26T08:31:17;101593.22;;;0.68;100.00
47670;BME280;33408;52.062;11.722;2023-02-26T08:33:43;101603.16;;;0.38;100.00
47670;BME280;33408;52.062;11.722;2023-02-26T08:36:10;101601.72;;;0.44;100.00
47670;BME280;33408;52.062;11.722;2023-02-26T08:38:38;101606.91;;;0.47;100.00
47670;BME280;33408;52.062;11.722;2023-02-26T08:41:05;101608.16;;;0.34;100.00
47670;BME280;33408;52.062;11.722;2023-02-26T08:43:32;101613.81;;;0.50;100.00
47670;BME280;33408;52.062;11.722;2023-02-26T08:45:59;101610.13;;;0.90;100.00
47670;BME280;33408;52.062;11.722;2023-02-26T08:48:25;101623.41;;;1.04;100.00
47670;BME280;33408;52.062;11.722;2023-02-26T08:50:52;101622.72;;;0.84;100.00
47670;BME280;33408;52.062;11.722;2023-02-26T08:53:19;101629.41;;;1.06;100.00
47670;BME280;33408;52.062;11.722;2023-02-26T08:55:48;101624.88;;;0.97;100.00
47670;BME280;33408;52.062;11.722;2023-02-26T08:58:14;101636.16;;;1.28;100.00
47670;BME280;33408;52.062;11.722;2023-02-26T09:00:41;101642.47;;;1.14;100.00
47670;BME280;33408;52.062;11.722;2023-02-26T09:03:08;101644.47;;;0.98;100.00
47670;BME280;33408;52.062;11.722;2023-02-26T09:05:35;101640.41;;;1.03;100.00
47670;BME280;33408;52.062;11.722;2023-02-26T09:08:02;101647.06;;;1.24;100.00
47670;BME280;33408;52.062;11.722;2023-02-26T09:10:28;101646.66;;;1.12;100.00
47670;BME280;33408;52.062;11.722;2023-02-26T09:12:56;101654.78;;;1.25;100.00
47670;BME280;33408;52.062;11.722;2023-02-26T09:15:23;101650.50;;;1.24;99.49
47670;BME280;33408;52.062;11.722;2023-02-26T09:17:49;101659.03;;;1.25;99.34
47670;BME280;33408;52.062;11.722;2023-02-26T09:20:17;101658.09;;;1.47;99.32
47670;BME280;33408;52.062;11.722;2023-02-26T09:22:43;101656.38;;;1.48;97.63
47670;BME280;33408;52.062;11.722;2023-02-26T09:25:10;101654.34;;;1.37;98.58
47670;BME280;33408;52.062;11.722;2023-02-26T09:27:37;101662.41;;;1.75;98.17
47670;BME280;33408;52.062;11.722;2023-02-26T09:30:09;101661.34;;;1.43;95.78
47670;BME280;33408;52.062;11.722;2023-02-26T09:32:35;101664.41;;;1.58;94.85
47670;BME280;33408;52.062;11.722;2023-02-26T09:35:03;101662.72;;;1.59;96.66
47670;BME280;33408;52.062;11.722;2023-02-26T09:37:30;101657.59;;;1.33;97.45
47670;BME280;33408;52.062;11.722;2023-02-26T09:39:58;101668.41;;;1.50;97.68
47670;BME280;33408;52.062;11.722;2023-02-26T09:42:37;101666.00;;;1.55;95.86
47670;BME280;33408;52.062;11.722;2023-02-26T09:45:25;101675.59;;;1.62;94.26
47670;BME280;33408;52.062;11.722;2023-02-26T09:47:53;101680.00;;;1.92;94.57
47670;BME280;33408;52.062;11.722;2023-02-26T09:50:24;101681.88;;;1.72;91.49
47670;BME280;33408;52.062;11.722;2023-02-26T09:52:55;101694.50;;;1.93;92.68
47670;BME280;33408;52.062;11.722;2023-02-26T09:55:27;101692.78;;;1.92;93.77
47670;BME280;33408;52.062;11.722;2023-02-26T09:57:58;101693.25;;;2.07;93.58
47670;BME280;33408;52.062;11.722;2023-02-26T10:00:36;101698.44;;;2.36;92.67
47670;BME280;33408;52.062;11.722;2023-02-26T10:03:16;101689.41;;;2.20;91.78
47670;BME280;33408;52.062;11.722;2023-02-26T10:06:04;101706.47;;;1.94;90.46
47670;BME280;33408;52.062;11.722;2023-02-26T10:08:41;101707.47;;;2.25;91.12
47670;BME280;33408;52.062;11.722;2023-02-26T10:11:13;101705.84;;;2.28;90.00
47670;BME280;33408;52.062;11.722;2023-02-26T10:13:47;101704.88;;;1.97;89.71
47670;BME280;33408;52.062;11.722;2023-02-26T10:16:20;101716.19;;;2.04;88.50
47670;BME280;33408;52.062;11.722;2023-02-26T10:18:51;101715.66;;;2.42;88.84
47670;BME280;33408;52.062;11.722;2023-02-26T10:21:23;101715.88;;;2.22;88.09
47670;BME280;33408;52.062;11.722;2023-02-26T10:23:54;101715.22;;;2.00;87.48
47670;BME280;33408;52.062;11.722;2023-02-26T10:26:24;101718.94;;;2.10;90.07
47670;BME280;33408;52.062;11.722;2023-02-26T10:28:56;101719.34;;;2.23;91.18
47670;BME280;33408;52.062;11.722;2023-02-26T10:31:34;101721.31;;;2.31;90.20
47670;BME280;33408;52.062;11.722;2023-02-26T10:34:12;101721.09;;;2.25;87.40
47670;BME280;33408;52.062;11.722;2023-02-26T10:36:46;101727.09;;;1.98;87.29
47670;BME280;33408;52.062;11.722;2023-02-26T10:39:22;101729.41;;;2.18;88.80
47670;BME280;33408;52.062;11.722;2023-02-26T10:41:52;101720.31;;;2.26;88.62
47670;BME280;33408;52.062;11.722;2023-02-26T10:44:23;101729.66;;;2.26;87.54
47670;BME280;33408;52.062;11.722;2023-02-26T10:46:58;101731.69;;;2.36;88.99
47670;BME280;33408;52.062;11.722;2023-02-26T10:49:48;101730.44;;;2.50;88.59
47670;BME280;33408;52.062;11.722;2023-02-26T10:52:18;101732.53;;;2.36;87.74
47670;BME280;33408;52.062;11.722;2023-02-26T10:55:02;101725.50;;;2.57;87.73
47670;BME280;33408;52.062;11.722;2023-02-26T10:57:36;101734.28;;;2.65;86.48
47670;BME280;33408;52.062;11.722;2023-02-26T11:00:05;101738.25;;;2.55;85.53
47670;BME280;33408;52.062;11.722;2023-02-26T11:02:39;101741.44;;;2.77;86.15
47670;BME280;33408;52.062;11.722;2023-02-26T11:05:15;101734.69;;;2.79;87.46
47670;BME280;33408;52.062;11.722;2023-02-26T11:07:44;101740.31;;;2.96;87.58
47670;BME280;33408;52.062;11.722;2023-02-26T11:10:16;101736.41;;;3.08;87.32
47670;BME280;33408;52.062;11.722;2023-02-26T11:12:43;101736.41;;;2.80;85.75
47670;BME280;33408;52.062;11.722;2023-02-26T11:15:14;101738.94;;;2.78;83.92
47670;BME280;33408;52.062;11.722;2023-02-26T11:17:42;101736.78;;;2.92;84.52
47670;BME280;33408;52.062;11.722;2023-02-26T11:20:25;101739.69;;;2.74;84.58
47670;BME280;33408;52.062;11.722;2023-02-26T11:22:54;101746.38;;;2.99;84.35
47670;BME280;33408;52.062;11.722;2023-02-26T11:25:25;101749.31;;;2.83;80.76
47670;BME280;33408;52.062;11.722;2023-02-26T11:27:58;101737.38;;;2.83;80.92
47670;BME280;33408;52.062;11.722;2023-02-26T11:30:29;101739.25;;;2.89;78.64
47670;BME280;33408;52.062;11.722;2023-02-26T11:33:04;101747.69;;;3.15;78.80
47670;BME280;33408;52.062;11.722;2023-02-26T11:35:32;101740.00;;;3.15;78.22
47670;BME280;33408;52.062;11.722;2023-02-26T11:38:00;101751.53;;;3.01;78.79
47670;BME280;33408;52.062;11.722;2023-02-26T11:40:33;101742.69;;;2.89;77.58
47670;BME280;33408;52.062;11.722;2023-02-26T11:43:04;101750.41;;;2.91;78.03
47670;BME280;33408;52.062;11.722;2023-02-26T11:45:34;101758.03;;;3.18;75.60
47670;BME280;33408;52.062;11.722;2023-02-26T11:48:05;101765.78;;;2.91;74.79
47670;BME280;33408;52.062;11.722;2023-02-26T11:50:39;101762.88;;;3.09;74.17
47670;BME280;33408;52.062;11.722;2023-02-26T11:53:15;101751.31;;;2.91;74.29
47670;BME280;33408;52.062;11.722;2023-02-26T11:55:44;101750.75;;;3.32;73.66
47670;BME280;33408;52.062;11.722;2023-02-26T11:58:17;101751.47;;;3.28;72.14
47670;BME280;33408;52.062;11.722;2023-02-26T12:00:44;101751.56;;;3.31;72.91
47670;BME280;33408;52.062;11.722;2023-02-26T12:03:17;101751.41;;;3.26;75.31
47670;BME280;33408;52.062;11.722;2023-02-26T12:05:45;101757.69;;;3.68;74.16
47670;BME280;33408;52.062;11.722;2023-02-26T12:08:17;101750.19;;;3.14;72.68
47670;BME280;33408;52.062;11.722;2023-02-26T12:10:57;101743.28;;;3.09;72.98
47670;BME280;33408;52.062;11.722;2023-02-26T12:13:29;101748.22;;;3.34;71.92
47670;BME280;33408;52.062;11.722;2023-02-26T12:16:04;101747.59;;;3.42;71.76
47670;BME280;33408;52.062;11.722;2023-02-26T12:18:47;101757.94;;;3.45;69.49
47670;BME280;33408;52.062;11.722;2023-02-26T12:21:25;101741.66;;;3.13;69.44
47670;BME280;33408;52.062;11.722;2023-02-26T12:24:10;101739.94;;;3.44;69.92
47670;BME280;33408;52.062;11.722;2023-02-26T12:26:42;101758.88;;;3.49;71.07
47670;BME280;33408;52.062;11.722;2023-02-26T12:29:24;101754.59;;;3.81;69.98
47670;BME280;33408;52.062;11.722;2023-02-26T12:32:10;101753.19;;;3.59;67.26
47670;BME280;33408;52.062;11.722;2023-02-26T12:35:14;101759.84;;;3.53;67.11
47670;BME280;33408;52.062;11.722;2023-02-26T12:37:54;101764.13;;;4.20;77.98
47670;BME280;33408;52.062;11.722;2023-02-26T12:40:43;101759.97;;;3.91;68.73
47670;BME280;33408;52.062;11.722;2023-02-26T12:43:19;101760.28;;;3.70;65.37
47670;BME280;33408;52.062;11.722;2023-02-26T12:45:52;101767.09;;;4.01;66.61
47670;BME280;33408;52.062;11.722;2023-02-26T12:48:50;101764.34;;;3.61;63.98
47670;BME280;33408;52.062;11.722;2023-02-26T12:51:31;101771.94;;;3.58;62.68
47670;BME280;33408;52.062;11.722;2023-02-26T12:54:21;101767.63;;;3.89;62.09
47670;BME280;33408;52.062;11.722;2023-02-26T12:57:08;101769.28;;;3.87;62.71
47670;BME280;33408;52.062;11.722;2023-02-26T12:59:58;101778.16;;;3.67;61.76
47670;BME280;33408;52.062;11.722;2023-02-26T13:05:59;101764.69;;;3.74;62.09
47670;BME280;33408;52.062;11.722;2023-02-26T13:08:32;101767.22;;;4.07;60.43